Terminal Aerodrome Forecast
Issued by NWS Caribou, ME

Home | Current Version | Previous Version | Text Only | Print | Product List | Glossary On
Versions: 1 2 3 4 5 6 7 8 9 10 11 12 13 14 15 16 17 18 19 20 21 22 23
843
FTUS41 KCAR 201740
TAFCAR
TAF
KCAR 201740Z 2018/2118 28018G28KT 4SM -SHSN BKN030
     FM202000 28017KT P6SM BKN060
     FM210200 29013KT P6SM SCT250=

USA.gov is the U.S. government's official web portal to all federal, state and local government web resources and services.